Terminal Aerodrome Forecast
Issued by NWS

Home | Current Version | Previous Version | Text Only | Print | Product List | Glossary On
Versions: 1 2 3 4 5 6 7 8 9 10 11 12 13 14 15 16 17 18 19 20 21 22 23
000
FTUS43 KDLH 210100 AAB
TAFHYR
TAF AMD
KHYR 210154Z 2102/2124 01004KT P6SM OVC035
     FM210500 05006KT P6SM OVC025
     FM211100 05005KT P6SM OVC015
     FM211600 12006KT P6SM SCT015=

USA.gov is the U.S. government's official web portal to all federal, state and local government web resources and services.